Time;durP1;ratioP1;P1;durP2;ratioP2;P2;SDS_P1;SDS_P2;PMS_P1;PMS_P2;Temp;Humidity;BMP_temperature;BMP_pressure;BME280_temperature;BME280_humidity;BME280_pressure;Samples;Min_cycle;Max_cycle;Signal;HPM_P1;HPM_P2
2022/04/25 00:01:05;;;;;;;18.77;8.95;;;;;;;;;;5048503;28;20032;-80
2022/04/25 00:03:31;;;;;;;18.73;9.48;;;;;;;;;;5050908;28;20024;-79
2022/04/25 00:05:57;;;;;;;22.65;9.95;;;;;;;;;;5051338;28;20022;-79
2022/04/25 00:08:23;;;;;;;23.83;10.98;;;;;;;;;;5054799;28;20045;-79
2022/04/25 00:10:49;;;;;;;20.60;9.18;;;;;;;;;;5049651;28;20025;-79
2022/04/25 00:13:15;;;;;;;19.67;9.48;;;;;;;;;;5051574;28;20037;-79
2022/04/25 00:15:41;;;;;;;20.98;11.13;;;;;;;;;;5048371;28;20057;-79
2022/04/25 00:18:08;;;;;;;18.10;9.65;;;;;;;;;;5054134;28;20033;-79
2022/04/25 00:20:34;;;;;;;19.92;9.27;;;8.70;99.90;;;;;;5054123;28;20041;-79
2022/04/25 00:23:06;;;;;;;19.52;9.32;;;;;;;;;;5051672;28;20330;-79
2022/04/25 00:25:32;;;;;;;18.05;9.63;;;;;;;;;;5051356;28;20025;-79
2022/04/25 00:27:59;;;;;;;22.00;9.95;;;;;;;;;;5051692;28;20037;-79
2022/04/25 00:30:24;;;;;;;20.15;9.68;;;;;;;;;;5050328;28;20043;-79
2022/04/25 00:32:51;;;;;;;19.73;9.32;;;;;;;;;;5038302;28;20152;-79
2022/04/25 00:35:17;;;;;;;17.08;7.88;;;;;;;;;;5049917;28;20033;-79
2022/04/25 00:37:43;;;;;;;20.85;10.23;;;;;;;;;;5053067;28;20036;-79
2022/04/25 00:40:10;;;;;;;22.90;9.88;;;;;;;;;;5048222;28;20083;-80
2022/04/25 00:42:36;;;;;;;20.77;9.65;;;;;;;;;;5042960;28;20039;-80
2022/04/25 00:45:02;;;;;;;17.50;8.88;;;;;;;;;;5045653;28;20068;-79
2022/04/25 00:47:28;;;;;;;18.85;8.88;;;;;;;;;;5045911;28;20104;-79
2022/04/25 00:49:54;;;;;;;20.02;9.38;;;;;;;;;;5047075;28;20048;-79
2022/04/25 00:52:20;;;;;;;21.88;8.50;;;;;;;;;;5047510;28;20045;-80
2022/04/25 00:54:46;;;;;;;19.27;8.65;;;;;;;;;;5050320;28;20062;-79
2022/04/25 00:57:12;;;;;;;18.58;9.30;;;;;;;;;;5049484;28;20028;-79
2022/04/25 00:59:38;;;;;;;15.38;7.82;;;;;;;;;;5051112;28;20028;-79
2022/04/25 01:02:05;;;;;;;15.93;8.70;;;;;;;;;;5049202;28;20512;-79
2022/04/25 01:04:31;;;;;;;18.65;9.25;;;;;;;;;;5048537;28;20409;-79
2022/04/25 01:06:58;;;;;;;18.40;8.73;;;;;;;;;;5050714;28;20093;-79
2022/04/25 01:09:25;;;;;;;17.02;9.18;;;;;;;;;;5050071;28;20053;-79
2022/04/25 01:11:52;;;;;;;13.38;7.70;;;;;;;;;;5051705;28;20041;-79
2022/04/25 01:14:18;;;;;;;15.85;8.27;;;;;;;;;;5054504;28;20473;-79
2022/04/25 01:16:45;;;;;;;16.80;8.10;;;;;;;;;;5049639;28;20033;-79
2022/04/25 01:19:11;;;;;;;15.85;8.95;;;;;;;;;;5049161;28;20108;-79
2022/04/25 01:21:43;;;;;;;16.17;7.50;;;;;;;;;;5054214;28;20064;-79
2022/04/25 01:29:38;;;;;;;13.73;7.20;;;;;;;;;;5050042;28;20110;-79
2022/04/25 01:32:05;;;;;;;16.42;7.85;;;;;;;;;;5050490;28;20041;-79
2022/04/25 01:34:32;;;;;;;19.02;9.88;;;;;;;;;;5055552;28;20036;-79
2022/04/25 01:36:59;;;;;;;16.35;8.35;;;;;;;;;;5049355;28;20024;-79
2022/04/25 01:39:24;;;;;;;19.67;9.02;;;;;;;;;;5052829;28;20065;-79
2022/04/25 01:41:51;;;;;;;19.50;8.60;;;;;;;;;;5049449;28;20032;-79
2022/04/25 01:44:17;;;;;;;15.57;7.65;;;;;;;;;;5052283;28;20917;-79
2022/04/25 01:46:43;;;;;;;13.55;7.85;;;;;;;;;;5049300;28;20080;-79
2022/04/25 01:49:09;;;;;;;17.83;8.23;;;;;;;;;;5045684;28;20036;-79
2022/04/25 01:51:35;;;;;;;19.20;8.73;;;;;;;;;;5044726;28;20104;-78
2022/04/25 01:54:01;;;;;;;16.92;8.30;;;;;;;;;;5048721;28;20029;-80
2022/04/25 01:56:28;;;;;;;13.60;7.25;;;;;;;;;;5051999;28;20013;-80
2022/04/25 01:58:54;;;;;;;16.45;7.78;;;;;;;;;;5049131;28;20127;-80
2022/04/25 02:01:20;;;;;;;20.27;9.02;;;;;;;;;;5052075;28;20045;-80
2022/04/25 02:03:47;;;;;;;19.73;8.10;;;;;;;;;;5045690;28;20613;-80
2022/04/25 02:06:13;;;;;;;13.13;7.50;;;;;;;;;;5052964;28;20040;-80
2022/04/25 02:08:39;;;;;;;16.60;8.45;;;;;;;;;;5053348;28;20025;-80
2022/04/25 02:11:20;;;;;;;13.25;6.53;;;;;;;;;;5045268;28;20035;-80
2022/04/25 02:13:47;;;;;;;15.23;8.10;;;;;;;;;;5051437;28;20104;-79
2022/04/25 02:16:13;;;;;;;18.67;7.97;;;;;;;;;;5046817;28;20025;-79
2022/04/25 02:18:42;;;;;;;15.30;8.00;;;;;;;;;;5052537;28;20088;-79
2022/04/25 02:21:08;;;;;;;16.08;8.50;;;;;;;;;;5055042;28;20036;-79
2022/04/25 02:23:34;;;;;;;15.52;7.30;;;;;;;;;;5049365;28;20462;-80
2022/04/25 02:26:01;;;;;;;16.85;7.93;;;;;;;;;;5049076;28;20430;-80
2022/04/25 02:28:27;;;;;;;11.55;5.82;;;;;;;;;;5050910;28;20021;-79
2022/04/25 02:30:53;;;;;;;17.85;8.52;;;;;;;;;;5054425;28;20481;-79
2022/04/25 02:33:19;;;;;;;13.95;6.78;;;;;;;;;;5052385;28;20033;-79
2022/04/25 02:35:45;;;;;;;12.63;7.72;;;;;;;;;;5048060;28;20032;-80
2022/04/25 02:38:11;;;;;;;14.02;8.00;;;;;;;;;;5053867;28;20028;-79
2022/04/25 02:40:38;;;;;;;14.65;7.72;;;;;;;;;;5054667;28;20033;-80
2022/04/25 02:43:04;;;;;;;15.65;7.95;;;;;;;;;;5056596;28;20070;-79
2022/04/25 02:45:29;;;;;;;15.90;7.78;;;8.30;99.90;;;;;;5054572;28;20374;-79
2022/04/25 02:47:55;;;;;;;17.02;7.32;;;;;;;;;;5054619;28;20035;-79
2022/04/25 02:50:21;;;;;;;13.63;6.63;;;;;;;;;;5053011;28;20029;-80
2022/04/25 02:52:49;;;;;;;12.25;6.22;;;;;;;;;;5054597;28;20037;-80
2022/04/25 02:55:15;;;;;;;14.88;7.95;;;;;;;;;;5048963;28;20021;-80
2022/04/25 02:57:41;;;;;;;16.05;7.32;;;;;;;;;;5054375;28;20025;-80
2022/04/25 03:00:07;;;;;;;13.70;8.27;;;;;;;;;;5051348;28;20040;-80
2022/04/25 03:02:33;;;;;;;14.30;7.40;;;;;;;;;;5052563;28;20051;-80
2022/04/25 03:04:59;;;;;;;11.73;6.22;;;;;;;;;;5056274;28;20052;-80
2022/04/25 03:07:25;;;;;;;14.70;8.10;;;;;;;;;;5051599;28;20033;-79
2022/04/25 03:09:51;;;;;;;14.02;6.72;;;;;;;;;;5055423;28;20033;-80
2022/04/25 03:12:18;;;;;;;15.52;8.05;;;;;;;;;;5050680;28;20028;-78
2022/04/25 03:14:45;;;;;;;14.80;7.70;;;;;;;;;;5044921;28;20030;-78
2022/04/25 03:17:11;;;;;;;12.15;7.18;;;;;;;;;;5047527;28;20029;-77
2022/04/25 03:19:37;;;;;;;13.35;6.93;;;;;;;;;;5052531;28;20119;-78
2022/04/25 03:22:04;;;;;;;17.40;7.53;;;;;;;;;;5045360;28;20055;-78
2022/04/25 03:24:33;;;;;;;14.32;6.57;;;;;;;;;;5046325;28;20480;-78
2022/04/25 03:26:59;;;;;;;11.70;6.18;;;;;;;;;;5051530;28;20032;-78
2022/04/25 03:29:25;;;;;;;12.93;6.47;;;;;;;;;;5049331;28;20118;-78
2022/04/25 03:31:52;;;;;;;14.80;8.32;;;;;;;;;;5050961;28;20534;-78
2022/04/25 03:34:17;;;;;;;17.17;8.18;;;;;;;;;;5046587;28;20029;-78
2022/04/25 03:36:51;;;;;;;12.00;6.63;;;;;;;;;;5045432;28;20032;-78
2022/04/25 03:39:16;;;;;;;;;;;;;;;;;;5039251;28;20029;-78
2022/04/25 03:41:42;;;;;;;11.82;6.80;;;;;;;;;;5052239;28;19963;-78
2022/04/25 03:44:08;;;;;;;14.77;7.35;;;;;;;;;;5047699;28;20025;-77
2022/04/25 03:46:34;;;;;;;16.08;6.90;;;;;;;;;;5042226;28;20055;-77
2022/04/25 03:49:00;;;;;;;10.32;5.55;;;;;;;;;;5048097;28;20075;-78
2022/04/25 03:51:28;;;;;;;13.18;7.05;;;;;;;;;;5045969;28;20025;-80
2022/04/25 03:53:54;;;;;;;15.80;8.27;;;;;;;;;;5048398;28;20029;-79
2022/04/25 03:59:08;;;;;;;10.88;5.65;;;;;;;;;;5053423;28;20054;-79
2022/04/25 04:01:36;;;;;;;13.32;6.53;;;;;;;;;;5053523;28;20027;-79
2022/04/25 04:04:05;;;;;;;14.23;6.95;;;;;;;;;;5054568;28;20087;-79
2022/04/25 04:06:31;;;;;;;13.52;6.93;;;;;;;;;;5051506;28;20040;-80
2022/04/25 04:08:57;;;;;;;17.40;7.82;;;;;;;;;;5054390;28;20021;-80
2022/04/25 04:11:23;;;;;;;15.82;7.65;;;;;;;;;;5046927;28;20094;-79
2022/04/25 04:13:49;;;;;;;21.83;8.73;;;;;;;;;;5049021;28;20105;-79
2022/04/25 04:16:15;;;;;;;12.77;7.75;;;;;;;;;;5046828;28;20029;-80
2022/04/25 04:18:41;;;;;;;15.20;7.40;;;;;;;;;;5050010;28;20046;-79
2022/04/25 04:21:09;;;;;;;17.00;8.20;;;;;;;;;;5051884;28;20026;-77
2022/04/25 04:23:35;;;;;;;15.75;7.47;;;;;;;;;;5042139;28;20041;-82
2022/04/25 04:26:01;;;;;;;15.82;8.18;;;;;;;;;;5042612;28;20033;-81
2022/04/25 04:28:27;;;;;;;14.65;7.45;;;;;;;;;;5047457;28;20033;-79
2022/04/25 04:30:53;;;;;;;17.17;8.25;;;;;;;;;;5047964;28;20032;-79
2022/04/25 04:33:19;;;;;;;18.77;7.90;;;;;;;;;;5050577;28;20108;-79
2022/04/25 04:38:30;;;;;;;27.20;11.15;;;;;;;;;;5046984;28;20120;-79
2022/04/25 04:40:56;;;;;;;26.75;12.32;;;;;;;;;;5044677;28;20032;-79
2022/04/25 04:43:22;;;;;;;29.50;10.23;;;;;;;;;;5048327;28;20553;-78
2022/04/25 04:45:48;;;;;;;22.30;10.63;;;;;;;;;;5043455;28;20493;-79
2022/04/25 04:48:14;;;;;;;21.52;10.10;;;;;;;;;;5046463;28;20029;-80
2022/04/25 04:50:40;;;;;;;28.23;12.20;;;;;;;;;;5047431;28;20036;-78
2022/04/25 04:53:07;;;;;;;39.53;16.17;;;;;;;;;;5047822;28;20391;-79
2022/04/25 04:55:35;;;;;;;34.72;11.38;;;;;;;;;;5049355;28;20056;-79
2022/04/25 04:58:02;;;;;;;24.77;13.32;;;;;;;;;;5054684;28;20030;-78
2022/04/25 05:00:29;;;;;;;28.52;10.32;;;;;;;;;;5049254;28;20021;-78
2022/04/25 05:02:55;;;;;;;15.27;7.10;;;;;;;;;;5052665;28;20057;-79
2022/04/25 05:05:21;;;;;;;16.95;7.68;;;;;;;;;;5052716;28;20033;-78
2022/04/25 05:07:47;;;;;;;13.55;7.38;;;;;;;;;;5050639;28;20036;-78
2022/04/25 05:10:13;;;;;;;15.07;8.23;;;;;;;;;;5046933;28;20469;-78
2022/04/25 05:12:49;;;;;;;14.05;6.80;;;;;;;;;;5048002;28;20041;-78
2022/04/25 05:15:16;;;;;;;13.98;7.68;;;;;;;;;;5050242;28;20029;-78
2022/04/25 05:17:48;;;;;;;16.40;7.03;;;;;;;;;;5057475;28;20025;-79
2022/04/25 05:20:14;;;;;;;16.00;8.82;;;;;;;;;;5052397;28;20116;-78
2022/04/25 05:22:43;;;;;;;15.77;7.82;;;;;;;;;;5051349;28;20481;-78
2022/04/25 05:25:09;;;;;;;13.48;6.47;;;;;;;;;;5050877;28;20040;-78
2022/04/25 05:27:37;;;;;;;13.95;6.38;;;;;;;;;;5055474;28;20017;-78
2022/04/25 05:30:03;;;;;;;19.50;8.05;;;;;;;;;;5055188;28;20033;-78
2022/04/25 05:32:40;;;;;;;16.38;7.18;;;;;;;;;;5054362;28;20432;-79
2022/04/25 05:35:06;;;;;;;13.93;7.15;;;;;;;;;;5060310;28;20120;-78
2022/04/25 05:37:32;;;;;;;15.98;7.85;;;;;;;;;;5054994;28;20040;-78
2022/04/25 05:39:58;;;;;;;11.98;6.70;;;;;;;;;;5049390;28;20409;-78
2022/04/25 05:42:24;;;;;;;13.00;6.30;;;;;;;;;;5057407;28;20112;-78
2022/04/25 05:44:50;;;;;;;14.70;7.15;;;;;;;;;;5052945;28;20033;-78
2022/04/25 05:47:16;;;;;;;26.63;11.40;;;;;;;;;;5052986;28;20095;-78
2022/04/25 05:52:27;;;;;;;13.15;6.85;;;;;;;;;;5053395;28;20059;-79
2022/04/25 05:54:52;;;;;;;12.75;7.13;;;7.30;99.90;;;;;;5052440;28;20021;-78
2022/04/25 05:57:18;;;;;;;9.27;5.25;;;;;;;;;;5058032;28;20027;-78
2022/04/25 05:59:44;;;;;;;10.30;6.05;;;;;;;;;;5053166;28;20060;-79
2022/04/25 06:02:10;;;;;;;13.95;6.63;;;;;;;;;;5057697;28;20037;-79
2022/04/25 06:04:36;;;;;;;9.73;5.25;;;;;;;;;;5060347;28;20095;-78
2022/04/25 06:07:04;;;;;;;15.90;6.50;;;;;;;;;;5055378;28;20040;-78
2022/04/25 06:09:30;;;;;;;13.70;6.50;;;;;;;;;;5052454;28;20026;-79
2022/04/25 06:11:56;;;;;;;12.68;5.93;;;;;;;;;;5048517;28;20037;-77
2022/04/25 06:14:22;;;;;;;10.65;6.78;;;;;;;;;;5048019;28;20094;-77
2022/04/25 06:16:48;;;;;;;11.13;5.20;;;;;;;;;;5046629;28;20032;-79
2022/04/25 06:19:14;;;;;;;14.40;5.53;;;;;;;;;;5052312;28;20021;-78
2022/04/25 06:21:40;;;;;;;12.05;5.88;;;;;;;;;;5052494;28;20037;-78
2022/04/25 06:24:06;;;;;;;12.65;6.25;;;;;;;;;;5054180;28;20029;-78
2022/04/25 06:26:34;;;;;;;10.90;5.25;;;;;;;;;;5060474;28;20030;-78
2022/04/25 06:29:00;;;;;;;8.80;5.30;;;;;;;;;;5058628;28;20036;-79
2022/04/25 06:31:26;;;;;;;8.48;5.07;;;;;;;;;;5052247;28;20374;-79
2022/04/25 06:33:52;;;;;;;10.85;6.00;;;;;;;;;;5055438;28;20060;-78
2022/04/25 06:36:18;;;;;;;8.55;4.25;;;;;;;;;;5060961;28;20084;-79
2022/04/25 06:38:44;;;;;;;10.45;5.30;;;11.60;99.90;;;;;;5055886;28;20036;-79
2022/04/25 06:41:10;;;;;;;7.63;4.90;;;;;;;;;;5055365;28;20433;-78
2022/04/25 06:43:36;;;;;;;8.55;4.22;;;;;;;;;;5060435;28;20041;-78
2022/04/25 06:46:02;;;;;;;7.40;4.20;;;11.80;99.90;;;;;;5049687;28;20025;-79
2022/04/25 06:48:28;;;;;;;6.68;3.92;;;;;;;;;;5053848;28;20037;-79
2022/04/25 06:50:55;;;;;;;9.10;4.30;;;;;;;;;;5054981;28;20143;-78
2022/04/25 06:53:21;;;;;;;7.28;3.95;;;;;;;;;;5058478;28;20419;-79
2022/04/25 06:55:47;;;;;;;8.43;4.53;;;;;;;;;;5055049;28;20045;-78
2022/04/25 06:58:13;;;;;;;5.93;3.45;;;;;;;;;;5051346;28;20370;-78
2022/04/25 07:00:40;;;;;;;7.47;4.05;;;;;;;;;;5049163;28;20904;-78
2022/04/25 07:03:06;;;;;;;7.20;4.07;;;12.20;99.90;;;;;;5051556;28;20037;-78
2022/04/25 07:05:32;;;;;;;9.15;4.60;;;;;;;;;;5046904;28;20048;-78
2022/04/25 07:07:58;;;;;;;8.57;5.18;;;;;;;;;;5053917;28;20116;-78
2022/04/25 07:10:24;;;;;;;6.15;3.63;;;;;;;;;;5048334;28;20108;-78
2022/04/25 07:12:50;;;;;;;10.63;4.55;;;;;;;;;;5049695;28;20522;-78
2022/04/25 07:15:16;;;;;;;9.30;5.22;;;;;;;;;;5051473;28;20048;-78
2022/04/25 07:17:42;;;;;;;10.38;5.78;;;;;;;;;;5055689;28;20021;-79
2022/04/25 07:20:08;;;;;;;9.45;4.35;;;;;;;;;;5057644;28;20130;-79
2022/04/25 07:30:49;;;;;;;7.18;4.15;;;;;;;;;;5049228;28;20067;-78
2022/04/25 07:33:14;;;;;;;12.77;5.10;;;;;;;;;;5050383;28;20037;-78
2022/04/25 07:35:40;;;;;;;13.82;5.97;;;;;;;;;;5052422;28;20091;-78
2022/04/25 07:38:07;;;;;;;8.55;4.72;;;;;;;;;;5050741;28;20029;-78
2022/04/25 07:40:33;;;;;;;7.65;4.38;;;;;;;;;;5047800;28;20032;-78
2022/04/25 07:42:59;;;;;;;8.43;3.92;;;;;;;;;;5045970;28;20497;-79
2022/04/25 07:45:25;;;;;;;7.80;3.40;;;;;;;;;;5046876;28;20191;-79
2022/04/25 07:47:51;;;;;;;7.22;3.78;;;;;;;;;;5049878;28;20033;-79
2022/04/25 07:50:23;;;;;;;7.53;4.00;;;;;;;;;;5046127;28;20025;-78
2022/04/25 07:52:49;;;;;;;4.70;3.08;;;;;;;;;;5052199;28;20041;-78
2022/04/25 07:55:14;;;;;;;14.65;6.93;;;;;;;;;;5049990;28;20031;-78
2022/04/25 07:57:40;;;;;;;6.72;3.75;;;;;;;;;;5049254;28;20086;-78
2022/04/25 08:00:07;;;;;;;5.47;3.35;;;;;;;;;;5047372;28;20029;-78
2022/04/25 08:02:33;;;;;;;5.53;3.25;;;;;;;;;;5053335;28;20025;-78
2022/04/25 08:04:59;;;;;;;4.53;3.08;;;;;;;;;;5051312;28;20094;-78
2022/04/25 08:07:25;;;;;;;5.82;2.90;;;;;;;;;;5048281;28;20064;-79
2022/04/25 08:09:51;;;;;;;5.07;3.40;;;;;;;;;;5048752;28;20480;-78
2022/04/25 08:18:01;;;;;;;5.53;3.55;;;;;;;;;;5050192;28;20044;-78
2022/04/25 08:20:28;;;;;;;7.93;3.08;;;;;;;;;;5049864;28;20059;-79
2022/04/25 08:22:55;;;;;;;7.82;3.60;;;;;;;;;;5050272;28;20082;-78
2022/04/25 08:25:21;;;;;;;4.85;2.55;;;;;;;;;;5047352;28;20025;-78
2022/04/25 08:27:46;;;;;;;3.85;2.38;;;15.00;99.90;;;;;;5056024;28;20029;-78
2022/04/25 08:30:12;;;;;;;3.45;2.55;;;15.00;99.90;;;;;;5047779;28;20025;-78
2022/04/25 08:32:38;;;;;;;4.93;2.58;;;;;;;;;;5046642;28;20036;-78
2022/04/25 08:35:04;;;;;;;4.28;2.65;;;;;;;;;;5052772;28;20514;-79
2022/04/25 08:37:30;;;;;;;4.90;2.38;;;;;;;;;;5054189;28;20114;-78
2022/04/25 08:39:56;;;;;;;6.28;2.85;;;;;;;;;;5050999;28;20021;-78
2022/04/25 08:42:22;;;;;;;4.28;2.25;;;;;;;;;;5047326;28;20044;-79
2022/04/25 08:44:50;;;;;;;4.07;2.08;;;;;;;;;;5047677;28;20435;-79
2022/04/25 08:47:16;;;;;;;4.88;2.15;;;;;;;;;;5053674;28;20035;-78
2022/04/25 08:49:43;;;;;;;4.53;2.38;;;;;;;;;;5052587;28;20123;-79
2022/04/25 08:52:10;;;;;;;3.55;1.95;;;;;;;;;;5054797;28;20495;-79
2022/04/25 08:54:36;;;;;;;4.75;2.05;;;;;;;;;;5051275;28;20029;-79
2022/04/25 08:57:05;;;;;;;3.17;2.15;;;;;;;;;;5054455;28;20025;-79
2022/04/25 08:59:32;;;;;;;4.30;2.05;;;;;;;;;;5054932;28;20020;-79
2022/04/25 09:01:58;;;;;;;6.82;1.58;;;23.10;88.70;;;;;;5051101;28;20211;-79
2022/04/25 09:04:24;;;;;;;3.70;2.10;;;;;;;;;;5057097;28;20048;-78
2022/04/25 09:06:51;;;;;;;3.60;1.95;;;;;;;;;;5052511;28;20025;-78
2022/04/25 09:09:17;;;;;;;3.45;2.13;;;;;;;;;;5049264;28;20017;-78
2022/04/25 09:14:28;;;;;;;3.35;1.77;;;;;;;;;;5049313;28;20508;-79
2022/04/25 09:16:54;;;;;;;4.53;2.28;;;;;;;;;;5051459;28;20057;-78
2022/04/25 09:19:20;;;;;;;4.07;2.35;;;;;;;;;;5058750;28;20017;-79
2022/04/25 09:21:46;;;;;;;3.55;2.20;;;;;;;;;;5051851;28;20029;-78
2022/04/25 09:24:21;;;;;;;3.50;1.83;;;;;;;;;;5053919;28;20495;-78
2022/04/25 09:26:48;;;;;;;3.05;1.65;;;;;;;;;;5049677;28;20021;-77
2022/04/25 09:29:14;;;;;;;4.20;2.30;;;;;;;;;;5049405;28;20113;-78
2022/04/25 09:31:50;;;;;;;5.43;2.35;;;;;;;;;;5044097;28;20075;-78
2022/04/25 09:34:59;;;;;;;4.57;2.00;;;16.80;86.30;;;;;;5055805;28;20127;-78
2022/04/25 09:37:02;;;;;;;3.20;1.63;;;;;;;;;;5056328;28;20033;-78
2022/04/25 09:39:30;;;;;;;3.42;1.85;;;;;;;;;;5056003;28;20032;-78
2022/04/25 09:41:56;;;;;;;3.92;2.03;;;;;;;;;;5054993;28;20035;-77
2022/04/25 09:44:23;;;;;;;3.15;1.45;;;;;;;;;;5049620;28;20461;-78
2022/04/25 09:46:49;;;;;;;4.35;2.05;;;;;;;;;;5054297;28;20078;-78
2022/04/25 09:49:21;;;;;;;4.93;2.63;;;;;;;;;;5057533;28;20040;-78
2022/04/25 09:52:03;;;;;;;4.33;2.30;;;;;;;;;;5053386;28;20044;-77
2022/04/25 09:54:29;;;;;;;3.42;2.03;;;;;;;;;;5051136;28;20279;-77
2022/04/25 09:56:56;;;;;;;7.40;3.13;;;;;;;;;;5048227;28;20032;-77
2022/04/25 09:59:22;;;;;;;7.00;3.60;;;;;;;;;;5045865;28;20048;-78
2022/04/25 10:02:04;;;;;;;4.82;2.30;;;;;;;;;;5049649;28;20036;-77
2022/04/25 10:04:36;;;;;;;4.35;2.40;;;;;;;;;;5049247;28;20162;-77
2022/04/25 10:07:04;;;;;;;4.82;3.08;;;;;;;;;;5054723;28;20533;-77
2022/04/25 10:09:31;;;;;;;5.60;2.83;;;;;;;;;;5052925;28;20025;-78
2022/04/25 10:12:01;;;;;;;7.30;3.28;;;;;;;;;;5048146;28;20685;-78
2022/04/25 10:14:27;;;;;;;4.18;2.30;;;;;;;;;;5052680;28;20036;-77
2022/04/25 10:16:56;;;;;;;3.75;2.30;;;;;;;;;;5050817;28;20029;-78
2022/04/25 10:19:24;;;;;;;4.20;2.45;;;;;;;;;;5049761;28;20059;-78
2022/04/25 10:21:51;;;;;;;3.03;2.05;;;;;;;;;;5045744;28;20017;-77
2022/04/25 10:24:18;;;;;;;3.25;1.80;;;;;;;;;;5053968;28;20121;-77
2022/04/25 10:26:44;;;;;;;4.18;1.98;;;;;;;;;;5048532;28;20021;-76
2022/04/25 10:29:12;;;;;;;3.80;1.98;;;;;;;;;;5051055;28;20025;-77
2022/04/25 10:31:41;;;;;;;8.10;2.15;;;;;;;;;;5046451;28;20032;-78
2022/04/25 10:34:07;;;;;;;3.00;1.70;;;;;;;;;;5047626;28;20041;-78
2022/04/25 10:36:39;;;;;;;4.45;2.35;;;;;;;;;;5053209;28;20036;-77
2022/04/25 10:39:21;;;;;;;3.50;1.92;;;;;;;;;;5052735;28;20086;-77
2022/04/25 10:44:42;;;;;;;3.55;1.73;;;;;;;;;;5048071;28;20115;-78
2022/04/25 10:47:14;;;;;;;2.75;1.55;;;;;;;;;;5044844;28;20052;-78
2022/04/25 10:49:43;;;;;;;2.97;1.50;;;;;;;;;;5053634;28;20481;-77
2022/04/25 10:52:28;;;;;;;2.38;1.38;;;;;;;;;;5052283;28;20119;-77
2022/04/25 10:55:13;;;;;;;3.42;1.60;;;;;;;;;;5046895;28;20021;-78
2022/04/25 10:57:58;;;;;;;4.30;1.88;;;;;;;;;;5048780;28;20435;-77
2022/04/25 11:00:45;;;;;;;2.30;1.20;;;;;;;;;;5047784;28;20037;-78
2022/04/25 11:03:26;;;;;;;3.42;1.70;;;;;;;;;;5049373;28;20037;-77
2022/04/25 11:05:55;;;;;;;1.70;1.00;;;;;;;;;;5052138;28;20032;-77
2022/04/25 11:08:23;;;;;;;2.25;1.20;;;;;;;;;;5047484;28;20091;-78
2022/04/25 11:10:51;;;;;;;4.18;1.75;;;;;;;;;;5051630;28;20954;-78
2022/04/25 11:13:18;;;;;;;2.70;1.75;;;;;;;;;;5049551;28;20033;-77
2022/04/25 11:15:48;;;;;;;3.13;1.90;;;;;;;;;;5046807;28;20033;-77
2022/04/25 11:18:33;;;;;;;3.28;1.77;;;;;;;;;;5052896;28;20025;-77
2022/04/25 11:21:07;;;;;;;3.95;2.10;;;;;;;;;;5053246;28;20041;-77
2022/04/25 11:23:47;;;;;;;3.58;1.77;;;17.20;86.30;;;;;;5047312;28;20030;-77
2022/04/25 11:26:23;;;;;;;3.83;1.90;;;;;;;;;;5049805;28;20025;-78
2022/04/25 11:29:07;;;;;;;2.47;1.58;;;;;;;;;;5050490;28;20029;-78
2022/04/25 11:31:34;;;;;;;3.92;2.05;;;;;;;;;;5043268;28;20031;-78
2022/04/25 11:34:01;;;;;;;4.28;2.13;;;;;;;;;;5040951;28;20374;-78
2022/04/25 11:36:29;;;;;;;3.15;1.80;;;;;;;;;;5044882;28;20374;-79
2022/04/25 11:41:43;;;;;;;3.45;1.48;;;17.20;83.20;;;;;;5049491;28;20396;-78
2022/04/25 11:44:09;;;;;;;2.60;1.20;;;;;;;;;;5048786;28;20059;-77
2022/04/25 11:46:37;;;;;;;2.97;1.70;;;;;;;;;;5040979;28;20041;-77
2022/04/25 11:49:03;;;;;;;3.03;1.52;;;;;;;;;;5046280;28;20033;-78
2022/04/25 11:51:33;;;;;;;2.50;1.55;;;;;;;;;;5049355;28;20029;-78
2022/04/25 11:54:01;;;;;;;3.83;2.30;;;;;;;;;;5046489;28;20111;-77
2022/04/25 11:56:27;;;;;;;2.97;1.33;;;17.60;79.20;;;;;;5047865;28;20028;-77
2022/04/25 11:58:54;;;;;;;3.72;1.70;;;;;;;;;;5049128;28;20033;-77
2022/04/25 12:01:33;;;;;;;2.63;1.20;;;;;;;;;;5037649;28;20025;-78
2022/04/25 12:04:14;;;;;;;2.80;1.48;;;;;;;;;;5052431;28;20029;-78
2022/04/25 12:06:46;;;;;;;2.42;1.50;;;;;;;;;;5051139;28;20090;-79
2022/04/25 12:17:36;;;;;;;2.20;1.15;;;;;;;;;;5045615;28;20463;-78
2022/04/25 12:20:04;;;;;;;1.70;0.90;;;;;;;;;;5048225;28;20192;-78
2022/04/25 12:22:30;;;;;;;2.85;1.92;;;;;;;;;;5047485;28;20116;-78
2022/04/25 12:25:12;;;;;;;1.95;1.23;;;;;;;;;;5041423;28;20061;-77
2022/04/25 12:27:38;;;;;;;2.45;1.35;;;;;;;;;;5045884;28;20033;-77
2022/04/25 12:30:07;;;;;;;5.20;2.00;;;;;;;;;;5034714;28;20079;-77
2022/04/25 12:32:34;;;;;;;1.92;1.33;;;;;;;;;;5039132;28;20124;-78
2022/04/25 12:35:00;;;;;;;2.05;0.95;;;;;;;;;;5038583;28;20037;-78
2022/04/25 12:37:26;;;;;;;2.17;1.20;;;;;;;;;;5042029;28;20551;-78
2022/04/25 12:40:05;;;;;;;3.55;1.48;;;;;;;;;;5044331;28;20365;-77
2022/04/25 12:42:43;;;;;;;2.45;1.50;;;;;;;;;;5031907;28;20029;-78
2022/04/25 12:45:09;;;;;;;2.65;1.05;;;;;;;;;;5039584;28;20134;-78
2022/04/25 12:47:35;;;;;;;2.53;1.45;;;;;;;;;;5042472;28;20052;-77
2022/04/25 12:50:03;;;;;;;4.88;2.10;;;;;;;;;;5045559;28;20199;-77
2022/04/25 12:52:46;;;;;;;3.70;1.63;;;;;;;;;;5041047;28;20052;-77
2022/04/25 12:55:12;;;;;;;5.50;2.13;;;;;;;;;;5037678;28;20048;-78
2022/04/25 12:57:38;;;;;;;2.15;1.45;;;;;;;;;;5043785;28;20122;-78
2022/04/25 13:00:05;;;;;;;3.55;1.92;;;;;;;;;;5047345;28;20416;-77
2022/04/25 13:02:35;;;;;;;4.05;1.98;;;;;;;;;;5051282;28;20127;-77
2022/04/25 13:05:13;;;;;;;2.60;1.70;;;;;;;;;;5054694;28;20607;-78
2022/04/25 13:07:44;;;;;;;2.65;1.63;;;;;;;;;;5046269;28;20311;-78
2022/04/25 13:10:10;;;;;;;3.65;1.52;;;;;;;;;;5049438;28;20119;-78
2022/04/25 13:12:37;;;;;;;2.05;1.33;;;;;;;;;;5051422;28;20051;-78
2022/04/25 13:15:05;;;;;;;2.80;1.75;;;;;;;;;;5045678;28;20381;-77
2022/04/25 13:17:31;;;;;;;2.88;1.40;;;;;;;;;;5047495;28;20037;-77
2022/04/25 13:19:57;;;;;;;3.00;1.80;;;;;;;;;;5042502;28;20594;-78
2022/04/25 13:22:23;;;;;;;4.28;1.52;;;;;;;;;;5036369;28;20026;-77
2022/04/25 13:24:49;;;;;;;3.72;1.80;;;;;;;;;;5042899;28;20439;-77
2022/04/25 13:27:15;;;;;;;2.13;1.40;;;;;;;;;;5043510;28;20033;-77
2022/04/25 13:29:44;;;;;;;2.67;1.30;;;;;;;;;;5043828;28;20041;-77
2022/04/25 13:32:11;;;;;;;2.90;1.85;;;17.60;96.70;;;;;;5037307;28;20037;-77
2022/04/25 13:34:37;;;;;;;4.72;1.52;;;;;;;;;;5039574;28;20061;-77
2022/04/25 13:37:04;;;;;;;2.17;1.52;;;;;;;;;;5043945;28;20112;-77
2022/04/25 13:39:30;;;;;;;5.78;1.60;;;;;;;;;;5041450;28;20052;-76
2022/04/25 13:41:58;;;;;;;3.40;1.85;;;;;;;;;;5048850;28;20032;-77
2022/04/25 13:44:24;;;;;;;3.45;1.85;;;;;;;;;;5049748;28;20033;-77
2022/04/25 13:46:50;;;;;;;3.83;2.42;;;;;;;;;;5044163;28;20028;-77
2022/04/25 13:49:16;;;;;;;4.32;1.67;;;;;;;;;;5051196;28;20024;-77
2022/04/25 13:51:42;;;;;;;5.20;2.00;;;17.00;93.60;;;;;;5044600;28;20536;-77
2022/04/25 13:54:08;;;;;;;2.65;1.40;;;;;;;;;;5047362;28;20045;-78
2022/04/25 13:56:34;;;;;;;3.88;1.80;;;;;;;;;;5046260;28;20017;-78
2022/04/25 13:59:00;;;;;;;5.35;1.60;;;;;;;;;;5045579;28;20090;-78
2022/04/25 14:01:26;;;;;;;3.25;1.67;;;;;;;;;;5047618;28;20037;-77
2022/04/25 14:03:53;;;;;;;3.13;1.70;;;;;;;;;;5039108;28;20060;-77
2022/04/25 14:06:19;;;;;;;4.40;1.63;;;;;;;;;;5043554;28;20389;-77
2022/04/25 14:08:45;;;;;;;3.00;1.40;;;;;;;;;;5046888;28;20021;-78
2022/04/25 14:11:12;;;;;;;5.78;2.60;;;;;;;;;;5042417;28;20509;-77
2022/04/25 14:13:38;;;;;;;4.20;2.30;;;;;;;;;;5047474;28;20039;-78
2022/04/25 14:16:04;;;;;;;5.07;2.03;;;;;;;;;;5036751;28;20029;-77
2022/04/25 14:18:30;;;;;;;3.50;1.90;;;;;;;;;;5039125;28;20024;-77
2022/04/25 14:20:58;;;;;;;3.97;1.70;;;;;;;;;;5041158;28;20086;-78
2022/04/25 14:23:23;;;;;;;3.13;1.77;;;;;;;;;;5041545;28;20056;-77
2022/04/25 14:25:50;;;;;;;3.97;1.90;;;;;;;;;;5049827;28;20094;-77
2022/04/25 14:28:16;;;;;;;3.60;2.03;;;;;;;;;;5039161;28;20119;-78
2022/04/25 14:30:42;;;;;;;3.30;1.77;;;;;;;;;;5046830;28;20412;-78
2022/04/25 14:33:08;;;;;;;4.18;2.00;;;;;;;;;;5048227;28;20082;-78
2022/04/25 14:35:34;;;;;;;3.10;1.92;;;;;;;;;;5049910;28;20070;-78
2022/04/25 14:38:00;;;;;;;2.75;1.83;;;;;;;;;;5049902;28;20088;-78
2022/04/25 14:40:26;;;;;;;3.33;1.42;;;;;;;;;;5044869;28;20932;-77
2022/04/25 14:42:53;;;;;;;3.72;2.83;;;;;;;;;;5048156;28;20491;-77
2022/04/25 14:45:19;;;;;;;4.53;2.22;;;;;;;;;;5044679;28;20485;-78
2022/04/25 14:47:49;;;;;;;4.10;2.42;;;;;;;;;;5043983;28;20033;-78
2022/04/25 14:55:46;;;;;;;5.05;2.38;;;;;;;;;;5036757;28;20128;-76
2022/04/25 14:58:13;;;;;;;5.32;2.00;;;;;;;;;;5037666;28;20048;-76
2022/04/25 15:00:41;;;;;;;3.97;2.33;;;;;;;;;;5033262;28;20029;-76
2022/04/25 15:03:08;;;;;;;3.17;1.95;;;;;;;;;;5043628;28;20025;-77
2022/04/25 15:05:37;;;;;;;4.28;2.25;;;;;;;;;;5042165;28;20382;-77
2022/04/25 15:08:03;;;;;;;4.45;2.20;;;;;;;;;;5040426;28;20146;-77
2022/04/25 15:10:29;;;;;;;3.88;1.85;;;;;;;;;;5038234;28;20033;-76
2022/04/25 15:12:54;;;;;;;3.80;1.70;;;;;;;;;;5033240;28;20049;-76
2022/04/25 15:15:20;;;;;;;4.05;2.03;;;;;;;;;;5031623;28;20226;-78
2022/04/25 15:17:49;;;;;;;4.07;1.95;;;;;;;;;;5034878;28;20036;-78
2022/04/25 15:20:15;;;;;;;4.90;3.13;;;;;;;;;;5031439;28;20021;-75
2022/04/25 15:22:41;;;;;;;6.93;2.70;;;;;;;;;;5036817;28;20120;-77